Time;durP1;ratioP1;P1;durP2;ratioP2;P2;SDS_P1;SDS_P2;PMS_P1;PMS_P2;Temp;Humidity;BMP_temperature;BMP_pressure;BME280_temperature;BME280_humidity;BME280_pressure;Samples;Min_cycle;Max_cycle;Signal;HPM_P1;HPM_P2
2022/06/26 00:02:19;;;;;;;16.87;10.30;;;;;;;17.27;69.40;99969.95;1981919;87;21031;-85
2022/06/26 00:05:24;;;;;;;13.40;10.63;;;;;;;17.21;69.88;99967.61;1989249;87;21573;-86
2022/06/26 00:08:31;;;;;;;14.03;10.45;;;;;;;17.17;70.08;99969.05;1972756;87;21047;-86
2022/06/26 00:11:39;;;;;;;12.68;9.93;;;;;;;17.08;70.15;99969.52;1980848;87;21146;-85
2022/06/26 00:14:43;;;;;;;13.60;9.28;;;;;;;16.96;69.98;99967.51;1987607;87;21118;-86
2022/06/26 00:17:45;;;;;;;14.73;11.00;;;;;;;16.90;69.90;99962.19;1950592;87;21086;-85
2022/06/26 00:20:48;;;;;;;13.83;10.50;;;;;;;16.89;70.19;99962.67;1983827;87;21047;-86
2022/06/26 00:23:55;;;;;;;11.22;9.30;;;;;;;16.86;70.22;99964.44;1991279;87;21054;-86
2022/06/26 00:26:58;;;;;;;12.40;10.30;;;;;;;16.79;69.95;99955.09;1982350;87;21512;-86
2022/06/26 00:30:04;;;;;;;11.20;9.45;;;;;;;16.84;69.98;99961.66;1967578;87;21030;-84
2022/06/26 00:33:06;;;;;;;15.70;10.70;;;;;;;16.83;70.11;99957.34;1937969;87;21605;-85
2022/06/26 00:36:09;;;;;;;12.82;10.98;;;;;;;16.80;70.35;99967.45;1988646;87;21064;-84
2022/06/26 00:39:13;;;;;;;17.07;11.48;;;;;;;16.82;70.64;99970.45;1997131;86;21054;-85
2022/06/26 00:42:20;;;;;;;17.00;10.70;;;;;;;16.80;70.98;99971.98;2040330;86;21085;-85
2022/06/26 00:45:22;;;;;;;21.70;10.53;;;;;;;16.83;70.89;99974.77;2045214;86;21493;-85
2022/06/26 00:48:30;;;;;;;11.73;9.60;;;;;;;16.87;70.92;99972.80;2044715;86;21025;-86
2022/06/26 00:51:36;;;;;;;15.03;10.87;;;;;;;16.91;70.72;99972.67;2038147;85;21050;-86
2022/06/26 00:54:43;;;;;;;16.45;11.40;;;;;;;16.94;70.73;99966.89;2044093;86;21617;-86
2022/06/26 00:57:46;;;;;;;14.00;9.93;;;;;;;16.94;70.62;99969.57;2045484;85;21138;-85
2022/06/26 01:00:52;;;;;;;17.75;10.20;;;;;;;16.94;70.58;99967.41;2003773;86;21073;-86
2022/06/26 01:04:03;;;;;;;12.47;9.93;;;;;;;16.92;70.67;99970.32;2036848;85;21134;-85
2022/06/26 01:07:14;;;;;;;16.65;10.45;;;;;;;16.90;70.66;99971.04;2040483;85;21496;-84
2022/06/26 01:10:19;;;;;;;11.65;10.40;;;;;;;16.93;70.73;99974.63;2043946;85;21185;-87
2022/06/26 01:13:26;;;;;;;15.60;10.63;;;;;;;16.94;70.85;99971.43;2047040;85;21065;-85
2022/06/26 01:16:33;;;;;;;13.93;10.15;;;;;;;16.97;70.96;99971.83;2047778;85;21018;-85
2022/06/26 01:19:39;;;;;;;12.63;9.90;;;;;;;17.00;70.83;99978.62;2047775;86;21030;-85
2022/06/26 01:22:41;;;;;;;15.23;9.90;;;;;;;16.99;70.63;99979.14;2040480;85;21033;-86
2022/06/26 01:26:00;;;;;;;;;;;;;;;;;;;;;
2022/06/26 01:28:59;;;;;;;13.68;9.48;;;;;;;16.94;70.08;99977.61;2043802;86;21076;-87
2022/06/26 01:32:04;;;;;;;11.78;9.85;;;;;;;16.89;70.10;99971.23;2004603;86;21018;-87
2022/06/26 01:35:18;;;;;;;13.43;8.40;;;;;;;16.83;70.39;99971.56;2043277;86;21014;-86
2022/06/26 01:38:28;;;;;;;33.58;9.30;;;;;;;16.78;70.11;99966.01;2022251;86;21007;-85
2022/06/26 01:41:28;;;;;;;21.20;9.35;;;;;;;16.78;69.94;99978.06;2006927;86;21105;-87
2022/06/26 01:44:33;;;;;;;22.27;11.40;;;;;;;16.73;70.00;99974.67;2022112;86;21042;-86
2022/06/26 01:47:42;;;;;;;19.07;10.75;;;;;;;16.69;70.22;99977.97;2018554;86;21035;-86
2022/06/26 01:50:55;;;;;;;14.78;10.32;;;;;;;16.67;70.29;99977.34;1987512;87;21027;-86
2022/06/26 01:53:54;;;;;;;13.40;9.68;;;;;;;16.66;70.30;99972.51;2027447;86;21090;-87
2022/06/26 01:57:01;;;;;;;14.18;10.13;;;;;;;16.67;70.00;99980.02;2020661;86;21023;-84
2022/06/26 02:00:10;;;;;;;13.98;10.50;;;;;;;16.64;69.91;99979.11;2006072;86;21053;-86
2022/06/26 02:03:18;;;;;;;14.03;11.25;;;;;;;16.55;69.98;99984.69;2012008;87;21668;-85
2022/06/26 02:06:31;;;;;;;14.70;11.50;;;;;;;16.50;70.18;99984.52;2016511;86;21095;-85
2022/06/26 02:16:31;;;;;;;13.00;10.05;;;;;;;16.48;70.15;99991.11;2022914;86;21062;-86
2022/06/26 02:19:38;;;;;;;16.57;10.63;;;;;;;16.48;70.25;99993.27;2021842;86;21051;-86
2022/06/26 02:22:40;;;;;;;12.35;8.93;;;;;;;16.49;70.31;99990.88;2021850;86;21070;-85
2022/06/26 02:25:47;;;;;;;14.40;9.70;;;;;;;16.50;70.04;99999.24;2021561;86;21094;-85
2022/06/26 02:29:07;;;;;;;11.22;8.98;;;;;;;16.45;69.78;100003.05;2022164;86;21035;-87
2022/06/26 02:32:05;;;;;;;14.58;10.05;;;;;;;16.40;69.87;100007.39;2019040;86;21050;-86
2022/06/26 02:35:08;;;;;;;12.75;10.15;;;;;;;16.27;69.90;100004.19;2019579;86;21046;-85
2022/06/26 02:38:17;;;;;;;11.40;8.45;;;;;;;16.08;70.10;100012.02;2013760;86;21537;-84
2022/06/26 02:41:24;;;;;;;13.40;10.75;;;;;;;16.00;70.13;100013.56;1979513;87;22505;-85
2022/06/26 02:44:36;;;;;;;15.85;11.12;;;;;;;15.90;70.60;100013.13;2007828;86;21092;-85
2022/06/26 02:47:39;;;;;;;12.68;10.68;;;;;;;15.82;70.76;100018.67;2017459;86;21109;-85
2022/06/26 02:50:47;;;;;;;17.42;10.78;;;;;;;15.74;70.91;100018.86;2018215;87;21604;-85
2022/06/26 02:53:54;;;;;;;16.23;11.53;;;;;;;15.69;71.13;100018.14;2013149;86;21573;-86
2022/06/26 02:57:06;;;;;;;13.95;11.57;;;;;;;15.64;71.37;100017.38;1963268;88;21090;-86
2022/06/26 03:00:07;;;;;;;14.55;11.50;;;;;;;15.67;71.64;100015.62;1991832;87;21058;-85
2022/06/26 03:03:11;;;;;;;14.60;10.03;;;;;;;15.68;71.59;100014.66;1979408;88;21008;-87
2022/06/26 03:06:18;;;;;;;11.68;9.05;;;;;;;15.70;71.46;100019.78;1981569;87;21879;-86
2022/06/26 03:09:23;;;;;;;11.85;9.03;;;;;;;15.73;71.39;100023.91;2009245;86;21034;-86
2022/06/26 03:12:24;;;;;;;12.07;8.98;;;;;;;15.75;71.28;100027.21;2002336;87;21019;-86
2022/06/26 03:15:33;;;;;;;14.75;9.00;;;;;;;15.76;71.20;100024.84;2000077;87;21034;-85
2022/06/26 03:18:39;;;;;;;11.05;9.10;;;;;;;15.80;71.15;100026.09;1998165;87;21150;-85
2022/06/26 03:21:42;;;;;;;15.58;11.00;;;;;;;15.86;71.20;100027.95;1984392;87;21057;-85
2022/06/26 03:24:45;;;;;;;16.17;11.45;;;;;;;15.87;71.42;100038.44;2001573;87;21519;-85
2022/06/26 03:27:49;;;;;;;19.73;10.20;;;;;;;15.84;71.49;100034.02;2004646;87;21106;-87
2022/06/26 03:30:53;;;;;;;14.43;9.25;;;;;;;15.99;71.66;100039.17;2002124;87;21071;-86
2022/06/26 03:33:56;;;;;;;11.03;9.00;;;;;;;16.29;71.68;100034.26;2008459;87;21022;-85
2022/06/26 03:37:05;;;;;;;14.85;9.50;;;;;;;16.67;71.44;100038.47;1999447;87;21577;-85
2022/06/26 03:40:14;;;;;;;11.88;9.35;;;;;;;17.11;71.25;100041.47;1998609;87;21604;-86
2022/06/26 03:43:18;;;;;;;13.70;8.45;;;;;;;17.50;70.82;100049.88;2004019;87;21034;-86
2022/06/26 03:46:23;;;;;;;11.88;8.28;;;;;;;17.89;70.38;100044.02;2004503;87;21086;-87
2022/06/26 03:49:27;;;;;;;15.00;9.00;;;;;;;18.30;70.01;100051.58;2004153;87;21006;-85
2022/06/26 03:52:33;;;;;;;13.55;7.83;;;;;;;18.69;69.65;100052.25;1977826;87;21065;-86
2022/06/26 03:55:40;;;;;;;13.78;9.13;;;;;;;19.17;68.98;100039.99;2001200;86;21062;-86
2022/06/26 03:58:42;;;;;;;9.25;8.30;;;;;;;19.54;68.40;100042.14;1980034;87;21081;-85
2022/06/26 04:01:49;;;;;;;12.07;8.33;;;;;;;20.02;68.04;100044.47;2000600;87;21553;-85
2022/06/26 04:04:55;;;;;;;11.08;6.97;;;;;;;20.31;67.17;100040.91;2005938;87;21573;-87
2022/06/26 04:08:04;;;;;;;9.45;7.87;;;;;;;20.60;66.76;100040.53;1981319;87;21093;-86
2022/06/26 04:11:21;;;;;;;9.68;7.55;;;;;;;21.19;66.22;100046.39;2003933;87;21607;-87
2022/06/26 04:14:22;;;;;;;11.65;8.50;;;;;;;21.56;65.14;100055.53;1957518;87;21040;-87
2022/06/26 04:17:27;;;;;;;14.55;9.08;;;;;;;21.96;65.06;100053.28;2008446;87;21077;-86
2022/06/26 04:20:41;;;;;;;11.97;8.18;;;;;;;22.40;64.12;100062.98;1953882;87;21636;-86
2022/06/26 04:23:49;;;;;;;15.15;9.08;;;;;;;22.70;63.51;100066.16;1994984;87;21109;-87
2022/06/26 04:27:03;;;;;;;9.85;8.55;;;;;;;23.14;63.22;100060.83;1997764;87;21027;-85
2022/06/26 04:30:09;;;;;;;14.43;8.43;;;;;;;23.52;61.82;100056.42;2002592;87;21003;-86
2022/06/26 04:33:15;;;;;;;12.37;8.18;;;;;;;23.76;61.14;100065.64;1997823;87;20998;-85
2022/06/26 04:36:19;;;;;;;11.12;8.15;;;;;;;24.13;60.77;100066.56;1974163;87;21101;-85
2022/06/26 04:39:23;;;;;;;10.80;8.53;;;;;;;24.56;59.95;100068.82;1986255;87;21063;-86
2022/06/26 04:42:37;;;;;;;9.25;7.83;;;;;;;24.99;59.44;100067.45;1987615;87;21074;-87
2022/06/26 04:45:42;;;;;;;11.57;8.70;;;;;;;25.14;58.35;100068.91;2001204;87;21043;-85
2022/06/26 04:48:45;;;;;;;14.15;7.83;;;;;;;25.45;58.25;100069.88;2007312;86;21503;-87
2022/06/26 04:52:02;;;;;;;;;;;;;;;;;;;;;
2022/06/26 04:55:09;;;;;;;9.03;7.78;;;;;;;25.58;56.95;100076.70;1993602;87;21078;-86
2022/06/26 04:58:18;;;;;;;9.33;6.60;;;;;;;26.13;56.46;100078.48;2000531;87;21034;-86
2022/06/26 05:01:22;;;;;;;9.58;6.80;;;;;;;26.53;55.02;100083.67;2000134;87;20979;-86
2022/06/26 05:04:43;;;;;;;10.50;6.97;;;;;;;26.62;53.57;100077.94;1914994;91;21119;-87
2022/06/26 05:08:00;;;;;;;9.30;7.20;;;;;;;26.53;52.87;100090.47;1931461;87;21021;-86
2022/06/26 05:11:24;;;;;;;;;;;;;;;;;;;;;
2022/06/26 05:14:23;;;;;;;10.10;6.45;;;;;;;26.35;52.26;100086.34;2001035;87;21490;-86
2022/06/26 05:17:42;;;;;;;8.63;7.55;;;;;;;26.33;51.41;100083.91;2005024;86;21015;-86
2022/06/26 05:20:39;;;;;;;11.68;6.12;;;;;;;26.06;50.05;100079.27;1986346;87;21066;-86
2022/06/26 05:23:45;;;;;;;10.60;7.03;;;;;;;25.88;51.41;100084.14;2007254;87;20987;-85
2022/06/26 05:26:53;;;;;;;10.72;6.80;;;;;;;26.06;50.51;100090.15;2005238;87;22416;-88
2022/06/26 05:30:09;;;;;;;11.10;6.90;;;;;;;26.08;50.65;100091.52;2043235;86;21085;-87
2022/06/26 05:33:11;;;;;;;9.68;6.47;;;;;;;26.16;50.04;100099.69;2016604;86;21030;-86
2022/06/26 05:36:17;;;;;;;;;;;;;;;26.18;49.94;100094.77;2017596;85;21022;-87
2022/06/26 05:39:27;;;;;;;9.33;6.55;;;;;;;26.35;49.76;100096.67;2041475;85;20178;-86
2022/06/26 05:42:33;;;;;;;8.30;6.45;;;;;;;26.58;48.99;100091.80;1991534;86;21023;-87
2022/06/26 05:45:45;;;;;;;9.53;7.10;;;;;;;26.82;49.39;100096.95;1967576;87;21089;-86
2022/06/26 05:49:15;;;;;;;11.35;6.83;;;;;;;27.19;49.18;100108.05;1983161;87;21054;-86
2022/06/26 05:52:26;;;;;;;7.45;6.60;;;;;;;27.62;48.43;100108.45;1967928;87;21062;-87
2022/06/26 05:55:38;;;;;;;7.90;6.47;;;;;;;27.36;47.46;100116.44;1970648;87;21085;-85
2022/06/26 05:59:16;;;;;;;8.18;6.17;;;;;;;27.12;47.52;100112.15;1978402;87;21073;-85
2022/06/26 06:02:30;;;;;;;13.45;7.12;;;;;;;27.16;47.92;100118.69;1993191;87;21586;-85
2022/06/26 06:05:37;;;;;;;9.15;7.35;;;;;;;27.29;47.04;100118.66;1995302;87;21139;-85
2022/06/26 06:08:51;;;;;;;15.08;7.37;;;;;;;27.21;46.97;100129.02;1988262;87;21025;-86
2022/06/26 06:11:54;;;;;;;8.73;6.30;;;;;;;27.34;47.25;100127.63;1962813;87;21144;-86
2022/06/26 06:15:09;;;;;;;8.73;6.90;;;;;;;27.55;47.00;100124.82;1997829;87;21688;-86
2022/06/26 06:18:16;;;;;;;8.88;7.17;;;;;;;27.76;47.33;100129.06;1998434;87;21057;-86
2022/06/26 06:21:23;;;;;;;9.83;7.15;;;;;;;28.13;46.74;100129.98;1991907;87;21034;-86
2022/06/26 06:24:27;;;;;;;11.30;7.10;;;;;;;28.52;47.11;100129.18;1997073;87;21986;-86
2022/06/26 06:27:32;;;;;;;12.75;6.87;;;;;;;28.94;46.08;100131.77;1988844;86;21105;-87
2022/06/26 06:30:43;;;;;;;10.72;7.50;;;;;;;29.17;45.78;100131.58;1999638;87;21682;-87
2022/06/26 06:33:52;;;;;;;8.28;7.22;;;;;;;29.48;45.63;100140.23;1995671;87;21095;-86
2022/06/26 06:37:14;;;;;;;;;;;;;;;;;;;;;
2022/06/26 06:40:16;;;;;;;8.55;6.92;;;;;;;29.92;44.61;100134.20;1997064;85;21086;-85
2022/06/26 06:43:47;;;;;;;;;;;;;;;;;;;;;
2022/06/26 06:46:51;;;;;;;10.05;7.15;;;;;;;29.97;44.35;100141.53;1977723;86;20267;-86
2022/06/26 06:50:18;;;;;;;10.78;7.00;;;;;;;30.36;44.30;100144.79;2041273;86;21073;-86
2022/06/26 06:53:15;;;;;;;10.15;7.17;;;;;;;30.52;44.05;100148.10;2036044;86;21054;-86
2022/06/26 06:56:19;;;;;;;10.88;8.03;;;;;;;30.63;43.44;100142.44;2040216;86;21045;-86
2022/06/26 06:59:32;;;;;;;9.83;7.03;;;;;;;30.82;43.16;100140.48;2023541;86;21038;-85
2022/06/26 07:02:59;;;;;;;;;;;;;;;;;;;;;
2022/06/26 07:06:15;;;;;;;8.53;6.65;;;;;;;31.04;42.38;100141.19;2042992;85;21069;-84
2022/06/26 07:09:21;;;;;;;7.80;7.00;;;;;;;31.08;42.18;100144.94;2044264;85;21104;-85
2022/06/26 07:12:46;;;;;;;;;;;;;;;;;;;;;
2022/06/26 07:15:48;;;;;;;8.58;6.40;;;;;;;31.46;41.92;100140.67;2019184;85;21556;-86
2022/06/26 07:18:53;;;;;;;7.60;6.53;;;;;;;31.56;41.31;100142.37;2035079;85;21687;-84
2022/06/26 07:22:06;;;;;;;11.28;6.87;;;;;;;31.44;40.98;100142.90;2009515;86;21013;-84
2022/06/26 07:25:16;;;;;;;10.80;6.78;;;;;;;31.47;41.59;100142.28;2022284;86;21129;-85
2022/06/26 07:28:24;;;;;;;11.08;6.80;;;;;;;31.75;40.71;100147.17;2034849;86;21518;-85
2022/06/26 07:35:46;;;;;;;;;;;;;;;;;;;;;
2022/06/26 07:38:55;;;;;;;7.10;6.37;;;;;;;32.06;40.90;100140.47;1980492;87;21108;-84
2022/06/26 07:42:10;;;;;;;12.70;6.67;;;;;;;32.49;39.90;100140.58;1940664;88;21117;-85
2022/06/26 07:45:41;;;;;;;11.12;6.90;;;;;;;32.63;39.28;100137.19;1976800;88;21061;-85
2022/06/26 07:52:37;;;;;;;;;;;;;;;;;;;;;
2022/06/26 07:55:46;;;;;;;7.60;6.00;;;;;;;32.91;39.26;100130.96;1963936;88;21098;-85
2022/06/26 07:59:06;;;;;;;;;;;;;;;;;;;;;
2022/06/26 08:02:31;;;;;;;8.53;5.65;;;;;;;32.76;37.38;100134.12;1969469;88;21046;-86
2022/06/26 08:05:46;;;;;;;9.05;5.75;;;;;;;32.58;37.44;100137.34;1917086;90;21115;-84
2022/06/26 08:09:12;;;;;;;6.75;5.12;;;;;;;32.33;36.02;100129.15;1894708;90;21133;-85
2022/06/26 08:12:33;;;;;;;7.95;5.95;;;;;;;32.03;35.92;100130.69;1909796;90;21143;-85
2022/06/26 08:16:04;;;;;;;8.13;5.10;;;;;;;32.04;36.48;100134.47;1863359;92;21206;-84
2022/06/26 08:19:34;;;;;;;7.20;5.07;;;;;;;31.94;36.65;100131.98;1845483;92;21189;-87
2022/06/26 08:22:43;;;;;;;4.58;4.17;;;;;;;31.98;36.95;100138.45;1869619;92;21097;-85
2022/06/26 08:26:31;;;;;;;;;;;;;;;;;;;;;
2022/06/26 08:29:39;;;;;;;7.83;4.75;;;;;;;32.05;35.05;100129.82;1910883;89;21065;-86
2022/06/26 08:33:00;;;;;;;;;;;;;;;;;;;;;
2022/06/26 08:36:10;;;;;;;7.03;4.20;;;;;;;32.08;35.46;100136.86;1975070;89;21377;-87
2022/06/26 08:42:47;;;;;;;8.83;4.40;;;;;;;31.97;35.00;100136.84;1897163;89;21629;-86
2022/06/26 08:46:15;;;;;;;5.62;4.80;;;;;;;31.98;35.59;100139.02;1918178;92;21094;-86
2022/06/26 08:49:36;;;;;;;11.20;4.95;;;;;;;32.05;35.52;100137.48;1856907;92;21143;-86
2022/06/26 08:53:26;;;;;;;;;;;;;;;;;;;;;
2022/06/26 08:56:45;;;;;;;8.30;5.20;;;;;;;32.00;35.21;100140.91;1903614;92;21787;-86
2022/06/26 09:00:13;;;;;;;7.72;5.20;;;;;;;31.94;35.17;100138.84;1938189;90;21531;-87
2022/06/26 09:03:40;;;;;;;;;;;;;;;;;;;;;
2022/06/26 09:07:18;;;;;;;6.85;4.17;;;;;;;32.45;34.87;100140.38;1754388;99;21157;-86
2022/06/26 09:11:07;;;;;;;4.93;4.20;;;;;;;32.54;34.18;100138.52;1731104;101;21175;-86
2022/06/26 09:14:59;;;;;;;7.90;4.05;;;;;;;32.16;34.40;100140.81;1713724;103;21156;-86
2022/06/26 09:18:14;;;;;;;5.83;4.80;;;;;;;31.95;34.82;100138.27;1685415;103;21647;-85
2022/06/26 09:21:24;;;;;;;4.37;3.98;;;;;;;31.79;34.13;100137.77;1790411;96;21176;-85
2022/06/26 09:24:44;;;;;;;6.70;4.55;;;;;;;31.52;33.56;100133.96;1893593;90;21169;-86
2022/06/26 09:31:12;;;;;;;5.12;4.53;;;;;;;32.09;34.83;100134.36;1881452;92;21116;-75
2022/06/26 09:37:47;;;;;;;6.35;4.10;;;;;;;32.26;34.07;100123.27;1877132;93;21101;-74
2022/06/26 09:41:02;;;;;;;7.85;4.25;;;;;;;32.26;33.29;100128.20;1869854;93;21058;-72
2022/06/26 09:44:22;;;;;;;5.33;4.35;;;;;;;32.24;34.61;100125.51;1872824;93;21529;-73
2022/06/26 09:47:36;;;;;;;5.35;4.05;;;;;;;32.17;33.84;100133.38;1874400;92;21672;-72
2022/06/26 09:50:44;;;;;;;7.00;4.33;;;;;;;32.05;33.90;100127.88;1876445;93;21512;-74
2022/06/26 09:53:46;;;;;;;7.33;4.03;;;;;;;32.18;34.22;100128.94;1891135;90;21035;-75
2022/06/26 09:57:02;;;;;;;5.12;4.10;;;;;;;32.33;33.60;100125.84;1922640;90;21139;-78
2022/06/26 10:00:29;;;;;;;7.28;4.33;;;;;;;32.12;33.59;100137.05;1924897;91;21073;-71
2022/06/26 10:07:15;;;;;;;5.55;4.40;;;;;;;32.19;33.90;100129.77;1985505;87;21706;-75
2022/06/26 10:10:26;;;;;;;5.80;4.40;;;;;;;32.29;32.92;100132.25;2030957;85;20964;-72
2022/06/26 10:13:28;;;;;;;4.87;4.10;;;;;;;32.22;33.55;100139.56;2004980;86;21489;-72
2022/06/26 10:16:52;;;;;;;6.80;4.03;;;;;;;32.10;33.73;100122.28;2031465;86;21062;-74
2022/06/26 10:20:09;;;;;;;8.53;3.92;;;;;;;32.06;33.35;100123.20;2032578;86;21522;-71
2022/06/26 10:23:31;;;;;;;7.70;3.50;;;;;;;32.32;32.29;100120.64;2026359;86;21566;-75
2022/06/26 10:26:34;;;;;;;5.62;3.58;;;;;;;32.24;31.84;100132.37;2030109;86;21873;-72
2022/06/26 10:29:40;;;;;;;5.25;3.95;;;;;;;32.09;32.20;100132.18;2034837;85;21174;-70
2022/06/26 10:32:43;;;;;;;4.85;3.80;;;;;;;32.00;32.60;100124.45;2052229;85;21086;-71
2022/06/26 10:35:50;;;;;;;8.48;4.20;;;;;;;31.88;32.54;100118.91;2049275;84;21039;-75
2022/06/26 10:39:09;;;;;;;6.87;4.47;;;;;;;31.41;33.30;100119.64;2048786;84;21702;-71
2022/06/26 10:45:45;;;;;;;8.15;4.42;;;;;;;31.71;34.21;100120.12;2025694;85;21592;-74
2022/06/26 10:48:55;;;;;;;7.60;4.28;;;;;;;31.91;33.60;100127.11;2052307;85;21066;-79
2022/06/26 10:52:06;;;;;;;4.40;3.47;;;;;;;32.11;34.40;100126.63;2050848;85;21058;-72
2022/06/26 10:55:02;;;;;;;3.62;3.10;;;;;;;32.23;31.79;100115.66;2046518;85;21796;-74
2022/06/26 10:58:09;;;;;;;6.12;4.00;;;;;;;32.21;30.80;100115.95;2048259;85;21032;-79
2022/06/26 11:01:15;;;;;;;3.90;3.60;;;;;;;32.12;31.44;100120.58;2049837;84;21022;-72
2022/06/26 11:04:24;;;;;;;5.62;3.60;;;;;;;32.33;32.15;100115.42;2048125;84;21078;-76
2022/06/26 11:07:26;;;;;;;5.30;3.98;;;;;;;32.49;31.40;100119.98;2048201;85;22200;-72
2022/06/26 11:10:34;;;;;;;3.72;3.30;;;;;;;32.48;31.56;100116.43;2048354;85;21113;-73
2022/06/26 11:13:41;;;;;;;4.95;3.45;;;;;;;32.66;31.36;100108.29;2047761;85;21001;-74
2022/06/26 11:16:54;;;;;;;5.75;3.08;;;;;;;32.66;31.27;100113.78;2047391;85;21000;-73
2022/06/26 11:23:14;;;;;;;7.35;2.72;;;;;;;32.54;31.15;100114.37;2030254;85;21012;-83
2022/06/26 11:26:19;;;;;;;4.70;3.25;;;;;;;32.46;29.76;100104.94;2053866;85;21089;-79
2022/06/26 11:29:22;;;;;;;2.92;2.50;;;;;;;32.57;29.23;100109.05;2055254;84;21091;-73
2022/06/26 11:32:25;;;;;;;3.72;2.40;;;;;;;32.53;28.67;100106.70;2044442;85;21060;-74
2022/06/26 11:35:27;;;;;;;4.92;2.90;;;;;;;32.60;28.90;100099.38;2072601;84;21119;-73
2022/06/26 11:38:31;;;;;;;4.67;2.52;;;;;;;32.56;28.46;100099.20;2073603;84;21497;-72
2022/06/26 11:41:37;;;;;;;7.00;2.77;;;;;;;32.57;28.63;100095.89;2067742;84;21060;-72
2022/06/26 11:44:51;;;;;;;4.10;2.95;;;;;;;32.41;27.94;100099.58;2074180;84;21573;-82
2022/06/26 11:47:53;;;;;;;4.85;2.80;;;;;;;32.47;27.48;100098.34;2075101;83;21571;-74
2022/06/26 11:50:57;;;;;;;2.72;2.50;;;;;;;32.40;28.17;100100.68;2078615;84;21058;-73
2022/06/26 11:54:02;;;;;;;5.70;3.00;;;;;;;32.43;28.79;100093.75;2072857;84;21444;-83
2022/06/26 11:57:10;;;;;;;3.85;3.40;;;;;;;32.41;28.53;100094.63;2070253;84;21536;-77
2022/06/26 12:00:13;;;;;;;5.55;3.00;;;;;;;32.45;28.86;100094.26;2036398;86;21716;-73
2022/06/26 12:03:16;;;;;;;4.58;3.05;;;;;;;32.59;29.27;100090.33;2037781;86;21094;-74
2022/06/26 12:06:36;;;;;;;4.83;3.17;;;;;;;32.57;28.98;100091.77;2036098;86;20985;-72
2022/06/26 12:09:40;;;;;;;3.90;2.67;;;;;;;32.50;28.98;100090.85;2035181;86;21540;-75
2022/06/26 12:12:51;;;;;;;5.37;3.25;;;;;;;32.46;28.34;100093.95;2034786;85;21042;-77
2022/06/26 12:16:04;;;;;;;5.65;3.20;;;;;;;32.28;29.27;100091.64;2037516;85;21095;-73
2022/06/26 12:19:08;;;;;;;5.05;2.80;;;;;;;32.24;29.16;100085.70;2012486;87;21086;-72
2022/06/26 12:22:13;;;;;;;4.80;3.22;;;;;;;32.18;29.16;100085.59;2032039;86;20953;-73
2022/06/26 12:25:39;;;;;;;4.37;3.20;;;;;;;32.20;29.41;100091.02;2076452;84;20949;-72
2022/06/26 12:28:48;;;;;;;5.47;3.40;;;;;;;32.41;30.31;100080.36;2077152;84;21413;-80
2022/06/26 12:31:55;;;;;;;4.10;3.70;;;;;;;32.40;29.99;100091.06;2040368;84;20998;-74
2022/06/26 12:34:56;;;;;;;4.08;3.22;;;;;;;32.40;29.71;100091.06;2036215;86;21002;-72
2022/06/26 12:38:01;;;;;;;4.53;3.80;;;;;;;32.40;30.59;100092.44;2034164;86;22326;-75
2022/06/26 12:41:06;;;;;;;4.45;3.30;;;;;;;32.46;30.23;100078.05;2035807;86;21038;-72
2022/06/26 12:44:07;;;;;;;7.30;3.67;;;;;;;32.68;30.40;100078.02;2037073;86;20959;-72
2022/06/26 12:47:11;;;;;;;4.15;3.60;;;;;;;32.69;30.43;100076.07;1997798;87;21660;-73
2022/06/26 12:50:13;;;;;;;4.35;3.83;;;;;;;32.53;30.49;100083.36;1953126;89;21021;-73
2022/06/26 12:53:17;;;;;;;6.47;3.90;;;;;;;32.56;30.64;100084.09;1998332;87;21135;-74
2022/06/26 12:56:21;;;;;;;7.08;4.03;;;;;;;32.74;31.31;100082.81;2038932;86;20974;-74
2022/06/26 12:59:24;;;;;;;5.33;3.50;;;;;;;32.81;31.84;100077.11;2032198;86;20981;-71
2022/06/26 13:02:30;;;;;;;8.88;3.95;;;;;;;32.87;31.77;100079.73;2031968;86;21729;-72
2022/06/26 13:05:33;;;;;;;7.25;3.90;;;;;;;32.91;30.74;100071.08;2040082;86;21088;-72
2022/06/26 13:08:38;;;;;;;4.67;3.72;;;;;;;32.94;31.11;100065.75;2039111;86;21005;-72
2022/06/26 13:11:49;;;;;;;5.15;3.58;;;;;;;32.94;30.40;100071.81;1997134;87;21090;-72
2022/06/26 13:14:45;;;;;;;3.98;3.60;;;;;;;32.76;30.86;100069.58;2002579;87;21055;-72
2022/06/26 13:17:47;;;;;;;7.62;3.83;;;;;;;33.03;30.36;100069.39;2002965;87;21041;-73
2022/06/26 13:20:51;;;;;;;7.10;3.50;;;;;;;32.95;29.99;100059.15;2040783;86;21524;-72
2022/06/26 13:23:53;;;;;;;4.37;3.33;;;;;;;32.80;30.04;100070.02;2034863;86;21112;-78
2022/06/26 13:26:55;;;;;;;4.08;3.60;;;;;;;32.70;30.36;100072.22;2035003;86;20983;-72
2022/06/26 13:29:56;;;;;;;6.17;3.52;;;;;;;32.58;30.33;100072.24;2038080;85;21008;-72
2022/06/26 13:32:59;;;;;;;7.22;4.90;;;;;;;32.52;29.60;100074.88;2038837;86;21026;-78
2022/06/26 13:36:05;;;;;;;6.65;3.98;;;;;;;32.58;29.28;100080.48;2072535;84;21021;-73
2022/06/26 13:39:08;;;;;;;3.42;3.15;;;;;;;32.60;29.56;100067.22;2074850;84;20997;-72
2022/06/26 13:42:11;;;;;;;4.60;3.72;;;;;;;32.68;30.31;100074.46;2039420;86;21537;-77
2022/06/26 13:45:14;;;;;;;5.87;3.98;;;;;;;32.80;29.91;100075.50;2034334;85;21525;-75
2022/06/26 13:48:16;;;;;;;5.85;3.45;;;;;;;32.76;29.90;100075.06;2030968;86;21616;-84
2022/06/26 13:51:18;;;;;;;4.30;3.42;;;;;;;32.64;29.76;100075.66;2033606;86;21033;-78
2022/06/26 13:54:19;;;;;;;4.83;3.92;;;;;;;32.63;30.08;100083.64;2033622;86;21028;-72
2022/06/26 13:57:25;;;;;;;6.40;3.92;;;;;;;32.57;30.11;100077.47;2070103;84;21558;-72
2022/06/26 14:00:27;;;;;;;4.60;3.90;;;;;;;32.68;30.00;100082.70;2072685;84;21065;-76
2022/06/26 14:03:30;;;;;;;8.18;3.58;;;;;;;32.41;29.50;100092.71;2075288;84;21013;-72
2022/06/26 14:06:31;;;;;;;4.10;3.50;;;;;;;32.01;29.84;100092.56;2076878;84;21584;-83
2022/06/26 14:09:35;;;;;;;4.20;3.80;;;;;;;31.74;30.30;100092.64;2071160;84;20987;-71
2022/06/26 14:12:38;;;;;;;5.33;3.52;;;;;;;31.76;31.16;100089.02;2075898;84;21091;-79
2022/06/26 14:15:44;;;;;;;5.92;3.50;;;;;;;31.74;31.09;100094.82;2073592;84;20988;-72
2022/06/26 14:18:45;;;;;;;4.25;3.52;;;;;;;31.73;31.31;100088.26;2073880;84;20963;-72
2022/06/26 14:25:55;;;;;;;4.22;3.33;;;;;;;31.74;31.39;100084.41;2033182;86;21568;-71
2022/06/26 14:28:15;;;;;;;5.78;3.77;;;;;;;31.92;31.09;100077.97;2075680;84;21117;-72
2022/06/26 14:31:16;;;;;;;6.15;3.47;;;;;;;31.86;30.98;100077.81;2076235;84;21348;-76
2022/06/26 14:34:19;;;;;;;6.50;4.00;;;;;;;31.99;31.32;100077.53;2076451;84;21076;-73
2022/06/26 14:37:23;;;;;;;6.97;3.80;;;;;;;31.91;31.43;100074.42;2069070;84;21026;-72
2022/06/26 14:40:24;;;;;;;7.45;3.72;;;;;;;31.86;30.90;100079.19;2075228;84;21020;-77
2022/06/26 14:43:26;;;;;;;3.55;3.22;;;;;;;31.75;31.29;100075.86;2077216;84;21030;-73
2022/06/26 14:46:28;;;;;;;3.90;3.60;;;;;;;31.52;31.67;100075.58;2075465;84;21071;-72
2022/06/26 14:49:31;;;;;;;4.03;3.52;;;;;;;31.31;31.91;100077.89;2076780;84;21494;-77
2022/06/26 14:52:33;;;;;;;6.92;3.12;;;;;;;31.20;31.95;100074.02;2069899;84;21624;-72
2022/06/26 14:55:38;;;;;;;4.70;3.67;;;;;;;31.14;32.10;100075.77;2075246;84;21509;-74
2022/06/26 14:58:39;;;;;;;4.03;3.55;;;;;;;31.12;32.33;100075.29;2076976;84;21542;-72
2022/06/26 15:01:41;;;;;;;4.53;3.08;;;;;;;31.04;32.11;100072.69;2032994;86;21052;-73
2022/06/26 15:04:45;;;;;;;7.67;3.75;;;;;;;31.14;32.36;100068.92;2076764;84;22075;-73
2022/06/26 15:07:47;;;;;;;4.50;2.87;;;;;;;31.22;32.19;100066.84;2072403;84;21097;-72
2022/06/26 15:10:48;;;;;;;3.92;3.62;;;;;;;31.34;31.98;100067.16;2032862;86;21045;-72
2022/06/26 15:13:50;;;;;;;5.33;3.40;;;;;;;31.28;31.92;100069.72;2082971;84;20984;-72
2022/06/26 15:16:54;;;;;;;6.12;3.70;;;;;;;31.34;32.15;100065.78;2073655;84;21011;-75
2022/06/26 15:19:57;;;;;;;7.03;4.00;;;;;;;31.47;32.35;100061.41;2076742;84;21600;-72
2022/06/26 15:23:02;;;;;;;8.88;3.95;;;;;;;31.46;32.24;100066.09;2077697;84;21594;-73
2022/06/26 15:26:06;;;;;;;4.85;3.87;;;;;;;31.27;32.37;100068.91;2032047;86;21113;-72
2022/06/26 15:29:09;;;;;;;5.50;3.62;;;;;;;31.15;32.38;100062.34;2074936;84;21046;-73
2022/06/26 15:32:14;;;;;;;4.70;3.50;;;;;;;31.13;33.16;100069.48;2039878;84;21042;-71
2022/06/26 15:35:17;;;;;;;5.83;3.50;;;;;;;31.04;33.13;100068.58;2023967;86;21600;-79